sensor_id;sensor_type;location;lat;lon;timestamp;P1;durP1;ratioP1;P2;durP2;ratioP2
35558;SDS011;21661;50.794;-1.066;2023-08-06T00:00:10;1.65;;;0.60;;
35558;SDS011;21661;50.794;-1.066;2023-08-06T00:02:35;1.48;;;0.60;;
35558;SDS011;21661;50.794;-1.066;2023-08-06T00:05:01;1.73;;;0.73;;
35558;SDS011;21661;50.794;-1.066;2023-08-06T00:07:27;1.00;;;0.52;;
35558;SDS011;21661;50.794;-1.066;2023-08-06T00:09:53;1.98;;;0.50;;
35558;SDS011;21661;50.794;-1.066;2023-08-06T00:12:19;1.67;;;0.52;;
35558;SDS011;21661;50.794;-1.066;2023-08-06T00:14:44;1.60;;;0.77;;
35558;SDS011;21661;50.794;-1.066;2023-08-06T00:17:10;1.23;;;0.70;;
35558;SDS011;21661;50.794;-1.066;2023-08-06T00:19:35;1.55;;;0.65;;
35558;SDS011;21661;50.794;-1.066;2023-08-06T00:22:01;1.35;;;0.70;;
35558;SDS011;21661;50.794;-1.066;2023-08-06T00:24:27;1.30;;;0.70;;
35558;SDS011;21661;50.794;-1.066;2023-08-06T00:26:53;2.28;;;1.33;;
35558;SDS011;21661;50.794;-1.066;2023-08-06T00:29:18;1.42;;;0.73;;
35558;SDS011;21661;50.794;-1.066;2023-08-06T00:31:44;2.25;;;1.00;;
35558;SDS011;21661;50.794;-1.066;2023-08-06T00:34:10;2.67;;;0.73;;
35558;SDS011;21661;50.794;-1.066;2023-08-06T00:36:35;1.95;;;1.00;;
35558;SDS011;21661;50.794;-1.066;2023-08-06T00:39:01;1.88;;;0.90;;
35558;SDS011;21661;50.794;-1.066;2023-08-06T00:41:27;1.70;;;0.90;;
35558;SDS011;21661;50.794;-1.066;2023-08-06T00:43:53;3.33;;;1.02;;
35558;SDS011;21661;50.794;-1.066;2023-08-06T00:46:18;1.70;;;0.80;;
35558;SDS011;21661;50.794;-1.066;2023-08-06T00:48:44;2.58;;;0.90;;
35558;SDS011;21661;50.794;-1.066;2023-08-06T00:51:10;2.53;;;0.95;;
35558;SDS011;21661;50.794;-1.066;2023-08-06T00:53:37;1.58;;;0.95;;
35558;SDS011;21661;50.794;-1.066;2023-08-06T00:56:04;1.42;;;0.90;;
35558;SDS011;21661;50.794;-1.066;2023-08-06T00:58:30;1.80;;;0.70;;
35558;SDS011;21661;50.794;-1.066;2023-08-06T01:00:55;1.67;;;0.80;;
35558;SDS011;21661;50.794;-1.066;2023-08-06T01:03:21;2.00;;;0.98;;
35558;SDS011;21661;50.794;-1.066;2023-08-06T01:05:47;2.47;;;1.10;;
35558;SDS011;21661;50.794;-1.066;2023-08-06T01:13:33;1.67;;;0.80;;
35558;SDS011;21661;50.794;-1.066;2023-08-06T01:16:07;1.90;;;1.00;;
35558;SDS011;21661;50.794;-1.066;2023-08-06T01:18:34;1.77;;;0.85;;
35558;SDS011;21661;50.794;-1.066;2023-08-06T01:21:02;3.88;;;0.93;;
35558;SDS011;21661;50.794;-1.066;2023-08-06T01:23:28;2.30;;;0.90;;
35558;SDS011;21661;50.794;-1.066;2023-08-06T01:31:28;2.55;;;0.90;;
35558;SDS011;21661;50.794;-1.066;2023-08-06T01:34:01;2.58;;;0.90;;
35558;SDS011;21661;50.794;-1.066;2023-08-06T01:36:29;1.52;;;0.80;;
35558;SDS011;21661;50.794;-1.066;2023-08-06T01:38:56;2.17;;;0.82;;
35558;SDS011;21661;50.794;-1.066;2023-08-06T01:41:22;3.15;;;0.90;;
35558;SDS011;21661;50.794;-1.066;2023-08-06T01:43:48;1.95;;;1.08;;
35558;SDS011;21661;50.794;-1.066;2023-08-06T01:46:13;1.83;;;0.85;;
35558;SDS011;21661;50.794;-1.066;2023-08-06T01:48:39;1.58;;;0.90;;
35558;SDS011;21661;50.794;-1.066;2023-08-06T01:51:05;1.67;;;1.15;;
35558;SDS011;21661;50.794;-1.066;2023-08-06T01:53:31;3.17;;;0.90;;
35558;SDS011;21661;50.794;-1.066;2023-08-06T01:55:57;3.17;;;1.10;;
35558;SDS011;21661;50.794;-1.066;2023-08-06T01:58:22;3.38;;;1.30;;
35558;SDS011;21661;50.794;-1.066;2023-08-06T02:00:48;2.30;;;1.00;;
35558;SDS011;21661;50.794;-1.066;2023-08-06T02:03:14;2.10;;;1.30;;
35558;SDS011;21661;50.794;-1.066;2023-08-06T02:05:40;2.70;;;1.27;;
35558;SDS011;21661;50.794;-1.066;2023-08-06T02:08:05;3.00;;;1.17;;
35558;SDS011;21661;50.794;-1.066;2023-08-06T02:10:31;3.22;;;1.17;;
35558;SDS011;21661;50.794;-1.066;2023-08-06T02:12:57;2.38;;;1.08;;
35558;SDS011;21661;50.794;-1.066;2023-08-06T02:15:23;2.38;;;1.40;;
35558;SDS011;21661;50.794;-1.066;2023-08-06T02:17:48;2.85;;;1.48;;
35558;SDS011;21661;50.794;-1.066;2023-08-06T02:20:14;1.90;;;1.20;;
35558;SDS011;21661;50.794;-1.066;2023-08-06T02:22:39;2.20;;;1.27;;
35558;SDS011;21661;50.794;-1.066;2023-08-06T02:25:05;2.30;;;1.20;;
35558;SDS011;21661;50.794;-1.066;2023-08-06T02:27:31;2.08;;;1.00;;
35558;SDS011;21661;50.794;-1.066;2023-08-06T02:29:57;2.75;;;1.30;;
35558;SDS011;21661;50.794;-1.066;2023-08-06T02:32:22;2.08;;;1.17;;
35558;SDS011;21661;50.794;-1.066;2023-08-06T02:34:48;2.45;;;1.40;;
35558;SDS011;21661;50.794;-1.066;2023-08-06T02:37:13;2.78;;;1.23;;
35558;SDS011;21661;50.794;-1.066;2023-08-06T02:39:39;3.33;;;1.25;;
35558;SDS011;21661;50.794;-1.066;2023-08-06T02:42:07;2.50;;;1.42;;
35558;SDS011;21661;50.794;-1.066;2023-08-06T02:44:34;3.17;;;1.27;;
35558;SDS011;21661;50.794;-1.066;2023-08-06T02:47:00;2.58;;;1.30;;
35558;SDS011;21661;50.794;-1.066;2023-08-06T02:49:25;3.80;;;1.40;;
35558;SDS011;21661;50.794;-1.066;2023-08-06T02:51:51;3.10;;;1.17;;
35558;SDS011;21661;50.794;-1.066;2023-08-06T02:54:17;2.33;;;1.33;;
35558;SDS011;21661;50.794;-1.066;2023-08-06T02:56:43;3.25;;;1.30;;
35558;SDS011;21661;50.794;-1.066;2023-08-06T02:59:10;2.50;;;1.40;;
35558;SDS011;21661;50.794;-1.066;2023-08-06T03:01:36;3.33;;;1.40;;
35558;SDS011;21661;50.794;-1.066;2023-08-06T03:04:02;2.95;;;1.23;;
35558;SDS011;21661;50.794;-1.066;2023-08-06T03:06:27;2.20;;;1.20;;
35558;SDS011;21661;50.794;-1.066;2023-08-06T03:08:53;4.70;;;1.42;;
35558;SDS011;21661;50.794;-1.066;2023-08-06T03:11:18;2.80;;;1.20;;
35558;SDS011;21661;50.794;-1.066;2023-08-06T03:13:44;3.17;;;1.13;;
35558;SDS011;21661;50.794;-1.066;2023-08-06T03:16:10;4.50;;;1.50;;
35558;SDS011;21661;50.794;-1.066;2023-08-06T03:18:35;2.53;;;1.38;;
35558;SDS011;21661;50.794;-1.066;2023-08-06T03:21:01;3.92;;;1.38;;
35558;SDS011;21661;50.794;-1.066;2023-08-06T03:23:26;2.50;;;1.40;;
35558;SDS011;21661;50.794;-1.066;2023-08-06T03:25:52;3.58;;;1.90;;
35558;SDS011;21661;50.794;-1.066;2023-08-06T03:28:18;4.90;;;1.30;;
35558;SDS011;21661;50.794;-1.066;2023-08-06T03:30:43;4.15;;;1.50;;
35558;SDS011;21661;50.794;-1.066;2023-08-06T03:33:09;2.00;;;1.10;;
35558;SDS011;21661;50.794;-1.066;2023-08-06T03:35:34;2.92;;;1.52;;
35558;SDS011;21661;50.794;-1.066;2023-08-06T03:38:00;3.38;;;1.48;;
35558;SDS011;21661;50.794;-1.066;2023-08-06T03:40:25;2.50;;;1.30;;
35558;SDS011;21661;50.794;-1.066;2023-08-06T03:42:51;2.90;;;1.30;;
35558;SDS011;21661;50.794;-1.066;2023-08-06T03:45:17;2.58;;;1.38;;
35558;SDS011;21661;50.794;-1.066;2023-08-06T03:47:42;4.45;;;1.48;;
35558;SDS011;21661;50.794;-1.066;2023-08-06T03:50:08;3.97;;;1.60;;
35558;SDS011;21661;50.794;-1.066;2023-08-06T03:52:34;2.75;;;1.33;;
35558;SDS011;21661;50.794;-1.066;2023-08-06T03:54:59;4.80;;;1.90;;
35558;SDS011;21661;50.794;-1.066;2023-08-06T03:57:25;2.40;;;1.23;;
35558;SDS011;21661;50.794;-1.066;2023-08-06T03:59:51;3.40;;;1.20;;
35558;SDS011;21661;50.794;-1.066;2023-08-06T04:02:16;4.47;;;2.08;;
35558;SDS011;21661;50.794;-1.066;2023-08-06T04:04:42;3.28;;;1.55;;
35558;SDS011;21661;50.794;-1.066;2023-08-06T04:07:07;4.22;;;1.50;;
35558;SDS011;21661;50.794;-1.066;2023-08-06T04:09:33;3.35;;;1.27;;
35558;SDS011;21661;50.794;-1.066;2023-08-06T04:11:58;2.78;;;1.70;;
35558;SDS011;21661;50.794;-1.066;2023-08-06T04:14:26;2.40;;;1.40;;
35558;SDS011;21661;50.794;-1.066;2023-08-06T04:16:52;4.22;;;1.40;;
35558;SDS011;21661;50.794;-1.066;2023-08-06T04:19:18;3.25;;;1.52;;
35558;SDS011;21661;50.794;-1.066;2023-08-06T04:21:44;3.47;;;1.50;;
35558;SDS011;21661;50.794;-1.066;2023-08-06T04:24:09;4.57;;;1.50;;
35558;SDS011;21661;50.794;-1.066;2023-08-06T04:26:35;2.65;;;1.20;;
35558;SDS011;21661;50.794;-1.066;2023-08-06T04:29:00;3.35;;;1.65;;
35558;SDS011;21661;50.794;-1.066;2023-08-06T04:31:26;3.03;;;1.42;;
35558;SDS011;21661;50.794;-1.066;2023-08-06T04:33:51;3.25;;;1.48;;
35558;SDS011;21661;50.794;-1.066;2023-08-06T04:36:17;3.00;;;1.58;;
35558;SDS011;21661;50.794;-1.066;2023-08-06T04:38:42;2.55;;;1.30;;
35558;SDS011;21661;50.794;-1.066;2023-08-06T04:41:10;3.47;;;1.48;;
35558;SDS011;21661;50.794;-1.066;2023-08-06T04:43:36;4.55;;;1.40;;
35558;SDS011;21661;50.794;-1.066;2023-08-06T04:46:02;2.63;;;1.30;;
35558;SDS011;21661;50.794;-1.066;2023-08-06T04:48:27;3.03;;;1.40;;
35558;SDS011;21661;50.794;-1.066;2023-08-06T04:50:53;2.20;;;1.17;;
35558;SDS011;21661;50.794;-1.066;2023-08-06T04:53:19;3.60;;;1.40;;
35558;SDS011;21661;50.794;-1.066;2023-08-06T04:55:45;2.80;;;1.25;;
35558;SDS011;21661;50.794;-1.066;2023-08-06T04:58:11;5.25;;;1.50;;
35558;SDS011;21661;50.794;-1.066;2023-08-06T05:00:37;5.28;;;1.50;;
35558;SDS011;21661;50.794;-1.066;2023-08-06T05:03:03;3.85;;;1.50;;
35558;SDS011;21661;50.794;-1.066;2023-08-06T05:05:29;5.38;;;1.40;;
35558;SDS011;21661;50.794;-1.066;2023-08-06T05:07:55;2.33;;;1.25;;
35558;SDS011;21661;50.794;-1.066;2023-08-06T05:10:23;4.80;;;1.42;;
35558;SDS011;21661;50.794;-1.066;2023-08-06T05:12:50;4.13;;;1.70;;
35558;SDS011;21661;50.794;-1.066;2023-08-06T05:15:15;2.95;;;1.30;;
35558;SDS011;21661;50.794;-1.066;2023-08-06T05:17:41;3.75;;;1.50;;
35558;SDS011;21661;50.794;-1.066;2023-08-06T05:20:07;2.63;;;1.30;;
35558;SDS011;21661;50.794;-1.066;2023-08-06T05:22:33;4.50;;;1.30;;
35558;SDS011;21661;50.794;-1.066;2023-08-06T05:24:58;3.10;;;1.30;;
35558;SDS011;21661;50.794;-1.066;2023-08-06T05:27:24;3.47;;;1.30;;
35558;SDS011;21661;50.794;-1.066;2023-08-06T05:29:49;5.05;;;1.67;;
35558;SDS011;21661;50.794;-1.066;2023-08-06T05:32:19;3.58;;;1.42;;
35558;SDS011;21661;50.794;-1.066;2023-08-06T05:34:45;3.70;;;1.55;;
35558;SDS011;21661;50.794;-1.066;2023-08-06T05:37:10;3.25;;;1.48;;
35558;SDS011;21661;50.794;-1.066;2023-08-06T05:39:36;2.22;;;1.27;;
35558;SDS011;21661;50.794;-1.066;2023-08-06T05:42:01;2.70;;;1.00;;
35558;SDS011;21661;50.794;-1.066;2023-08-06T05:44:28;4.15;;;1.45;;
35558;SDS011;21661;50.794;-1.066;2023-08-06T05:46:53;3.83;;;1.30;;
35558;SDS011;21661;50.794;-1.066;2023-08-06T05:49:19;3.40;;;1.52;;
35558;SDS011;21661;50.794;-1.066;2023-08-06T05:51:44;3.03;;;1.33;;
35558;SDS011;21661;50.794;-1.066;2023-08-06T05:54:10;5.55;;;1.50;;
35558;SDS011;21661;50.794;-1.066;2023-08-06T05:56:35;3.90;;;1.15;;
35558;SDS011;21661;50.794;-1.066;2023-08-06T05:59:01;3.60;;;1.50;;
35558;SDS011;21661;50.794;-1.066;2023-08-06T06:01:27;4.30;;;1.50;;
35558;SDS011;21661;50.794;-1.066;2023-08-06T06:03:52;6.03;;;1.40;;
35558;SDS011;21661;50.794;-1.066;2023-08-06T06:06:18;2.92;;;1.20;;
35558;SDS011;21661;50.794;-1.066;2023-08-06T06:08:45;3.42;;;1.40;;
35558;SDS011;21661;50.794;-1.066;2023-08-06T06:11:10;2.75;;;1.33;;
35558;SDS011;21661;50.794;-1.066;2023-08-06T06:13:36;4.47;;;1.30;;
35558;SDS011;21661;50.794;-1.066;2023-08-06T06:16:01;3.22;;;1.27;;
35558;SDS011;21661;50.794;-1.066;2023-08-06T06:18:27;3.28;;;1.25;;
35558;SDS011;21661;50.794;-1.066;2023-08-06T06:20:52;2.60;;;1.17;;
35558;SDS011;21661;50.794;-1.066;2023-08-06T06:23:18;3.10;;;1.30;;
35558;SDS011;21661;50.794;-1.066;2023-08-06T06:25:47;4.07;;;1.23;;
35558;SDS011;21661;50.794;-1.066;2023-08-06T06:28:13;2.92;;;1.20;;
35558;SDS011;21661;50.794;-1.066;2023-08-06T06:30:39;3.33;;;1.25;;
35558;SDS011;21661;50.794;-1.066;2023-08-06T06:33:05;2.72;;;1.30;;
35558;SDS011;21661;50.794;-1.066;2023-08-06T06:35:31;5.32;;;1.30;;
35558;SDS011;21661;50.794;-1.066;2023-08-06T06:37:56;2.53;;;1.30;;
35558;SDS011;21661;50.794;-1.066;2023-08-06T06:40:22;3.28;;;1.15;;
35558;SDS011;21661;50.794;-1.066;2023-08-06T06:42:48;5.82;;;1.17;;
35558;SDS011;21661;50.794;-1.066;2023-08-06T06:45:13;3.42;;;1.23;;
35558;SDS011;21661;50.794;-1.066;2023-08-06T06:47:39;3.17;;;1.08;;
35558;SDS011;21661;50.794;-1.066;2023-08-06T06:50:05;5.18;;;1.40;;
35558;SDS011;21661;50.794;-1.066;2023-08-06T06:52:30;3.45;;;1.20;;
35558;SDS011;21661;50.794;-1.066;2023-08-06T06:54:56;3.03;;;1.20;;
35558;SDS011;21661;50.794;-1.066;2023-08-06T06:57:22;2.65;;;1.33;;
35558;SDS011;21661;50.794;-1.066;2023-08-06T06:59:47;2.90;;;1.15;;
35558;SDS011;21661;50.794;-1.066;2023-08-06T07:02:13;3.35;;;1.10;;
35558;SDS011;21661;50.794;-1.066;2023-08-06T07:04:38;3.03;;;1.50;;
35558;SDS011;21661;50.794;-1.066;2023-08-06T07:07:04;2.47;;;0.95;;
35558;SDS011;21661;50.794;-1.066;2023-08-06T07:09:29;3.08;;;1.33;;
35558;SDS011;21661;50.794;-1.066;2023-08-06T07:11:55;2.78;;;1.20;;
35558;SDS011;21661;50.794;-1.066;2023-08-06T07:14:21;2.20;;;1.23;;
35558;SDS011;21661;50.794;-1.066;2023-08-06T07:16:46;3.80;;;1.30;;
35558;SDS011;21661;50.794;-1.066;2023-08-06T07:19:12;3.20;;;1.17;;
35558;SDS011;21661;50.794;-1.066;2023-08-06T07:21:37;4.85;;;1.10;;
35558;SDS011;21661;50.794;-1.066;2023-08-06T07:24:03;6.35;;;1.83;;
35558;SDS011;21661;50.794;-1.066;2023-08-06T07:26:28;3.47;;;1.23;;
35558;SDS011;21661;50.794;-1.066;2023-08-06T07:28:54;3.97;;;1.48;;
35558;SDS011;21661;50.794;-1.066;2023-08-06T07:31:20;3.78;;;1.38;;
35558;SDS011;21661;50.794;-1.066;2023-08-06T07:33:45;2.53;;;1.45;;
35558;SDS011;21661;50.794;-1.066;2023-08-06T07:36:12;4.82;;;1.40;;
35558;SDS011;21661;50.794;-1.066;2023-08-06T07:38:38;3.17;;;1.30;;
35558;SDS011;21661;50.794;-1.066;2023-08-06T07:41:05;3.55;;;1.42;;
35558;SDS011;21661;50.794;-1.066;2023-08-06T07:43:31;4.00;;;1.55;;
35558;SDS011;21661;50.794;-1.066;2023-08-06T07:46:00;4.03;;;1.05;;
35558;SDS011;21661;50.794;-1.066;2023-08-06T07:48:26;2.55;;;1.17;;
35558;SDS011;21661;50.794;-1.066;2023-08-06T07:50:52;2.47;;;1.20;;
35558;SDS011;21661;50.794;-1.066;2023-08-06T07:53:21;3.55;;;1.35;;
35558;SDS011;21661;50.794;-1.066;2023-08-06T07:55:49;2.85;;;1.02;;
35558;SDS011;21661;50.794;-1.066;2023-08-06T07:58:16;2.55;;;1.38;;
35558;SDS011;21661;50.794;-1.066;2023-08-06T08:00:41;3.42;;;1.20;;
35558;SDS011;21661;50.794;-1.066;2023-08-06T08:03:10;3.65;;;1.23;;
35558;SDS011;21661;50.794;-1.066;2023-08-06T08:05:37;2.85;;;1.17;;
35558;SDS011;21661;50.794;-1.066;2023-08-06T08:08:02;3.22;;;1.27;;
35558;SDS011;21661;50.794;-1.066;2023-08-06T08:10:28;3.45;;;1.35;;
35558;SDS011;21661;50.794;-1.066;2023-08-06T08:12:54;3.08;;;1.13;;
35558;SDS011;21661;50.794;-1.066;2023-08-06T08:15:19;2.88;;;1.45;;
35558;SDS011;21661;50.794;-1.066;2023-08-06T08:17:45;3.60;;;1.27;;
35558;SDS011;21661;50.794;-1.066;2023-08-06T08:20:12;2.40;;;1.00;;
35558;SDS011;21661;50.794;-1.066;2023-08-06T08:22:38;3.33;;;1.02;;
35558;SDS011;21661;50.794;-1.066;2023-08-06T08:25:04;3.22;;;1.27;;
35558;SDS011;21661;50.794;-1.066;2023-08-06T08:27:30;2.40;;;1.10;;
35558;SDS011;21661;50.794;-1.066;2023-08-06T08:29:56;3.75;;;1.25;;
35558;SDS011;21661;50.794;-1.066;2023-08-06T08:32:21;2.10;;;0.93;;
35558;SDS011;21661;50.794;-1.066;2023-08-06T08:34:47;3.15;;;1.30;;
35558;SDS011;21661;50.794;-1.066;2023-08-06T08:37:13;4.75;;;1.27;;
35558;SDS011;21661;50.794;-1.066;2023-08-06T08:39:38;3.47;;;1.00;;
35558;SDS011;21661;50.794;-1.066;2023-08-06T08:42:04;1.90;;;0.95;;
35558;SDS011;21661;50.794;-1.066;2023-08-06T08:44:32;3.13;;;1.00;;
35558;SDS011;21661;50.794;-1.066;2023-08-06T08:46:58;3.47;;;1.20;;
35558;SDS011;21661;50.794;-1.066;2023-08-06T08:49:24;2.20;;;0.80;;
35558;SDS011;21661;50.794;-1.066;2023-08-06T08:51:52;3.33;;;1.00;;
35558;SDS011;21661;50.794;-1.066;2023-08-06T08:54:20;2.65;;;1.05;;
35558;SDS011;21661;50.794;-1.066;2023-08-06T08:56:48;2.28;;;1.00;;
35558;SDS011;21661;50.794;-1.066;2023-08-06T08:59:14;3.28;;;1.05;;
35558;SDS011;21661;50.794;-1.066;2023-08-06T09:01:39;1.77;;;0.88;;
35558;SDS011;21661;50.794;-1.066;2023-08-06T09:04:07;2.35;;;0.98;;
35558;SDS011;21661;50.794;-1.066;2023-08-06T09:06:34;2.33;;;0.93;;
35558;SDS011;21661;50.794;-1.066;2023-08-06T09:11:34;1.50;;;0.70;;
35558;SDS011;21661;50.794;-1.066;2023-08-06T09:14:09;2.80;;;1.00;;
35558;SDS011;21661;50.794;-1.066;2023-08-06T09:16:35;1.70;;;0.70;;
35558;SDS011;21661;50.794;-1.066;2023-08-06T09:19:10;4.57;;;1.10;;
35558;SDS011;21661;50.794;-1.066;2023-08-06T09:21:43;1.60;;;0.90;;
35558;SDS011;21661;50.794;-1.066;2023-08-06T09:24:09;2.53;;;0.80;;
35558;SDS011;21661;50.794;-1.066;2023-08-06T09:26:42;1.70;;;0.80;;
35558;SDS011;21661;50.794;-1.066;2023-08-06T09:29:10;4.15;;;1.02;;
35558;SDS011;21661;50.794;-1.066;2023-08-06T09:34:26;2.90;;;0.88;;
35558;SDS011;21661;50.794;-1.066;2023-08-06T09:36:52;2.10;;;0.90;;
35558;SDS011;21661;50.794;-1.066;2023-08-06T09:39:19;3.58;;;0.85;;
35558;SDS011;21661;50.794;-1.066;2023-08-06T09:41:46;2.28;;;0.80;;
35558;SDS011;21661;50.794;-1.066;2023-08-06T09:44:20;3.72;;;1.10;;
35558;SDS011;21661;50.794;-1.066;2023-08-06T09:46:50;2.20;;;0.70;;
35558;SDS011;21661;50.794;-1.066;2023-08-06T09:49:20;2.17;;;1.13;;
35558;SDS011;21661;50.794;-1.066;2023-08-06T09:51:51;2.70;;;0.90;;
35558;SDS011;21661;50.794;-1.066;2023-08-06T09:54:18;2.17;;;1.00;;
35558;SDS011;21661;50.794;-1.066;2023-08-06T09:56:44;3.47;;;0.90;;
35558;SDS011;21661;50.794;-1.066;2023-08-06T09:59:10;2.22;;;0.98;;
35558;SDS011;21661;50.794;-1.066;2023-08-06T10:01:38;1.73;;;0.80;;
35558;SDS011;21661;50.794;-1.066;2023-08-06T10:04:05;1.88;;;0.75;;
35558;SDS011;21661;50.794;-1.066;2023-08-06T10:06:34;1.30;;;0.85;;
35558;SDS011;21661;50.794;-1.066;2023-08-06T10:09:01;2.28;;;1.10;;
35558;SDS011;21661;50.794;-1.066;2023-08-06T10:11:27;1.83;;;0.80;;
35558;SDS011;21661;50.794;-1.066;2023-08-06T10:13:58;2.05;;;0.90;;
35558;SDS011;21661;50.794;-1.066;2023-08-06T10:16:39;3.80;;;1.48;;
35558;SDS011;21661;50.794;-1.066;2023-08-06T10:19:07;1.50;;;0.98;;
35558;SDS011;21661;50.794;-1.066;2023-08-06T10:21:35;3.58;;;0.90;;
35558;SDS011;21661;50.794;-1.066;2023-08-06T10:24:02;3.65;;;0.75;;
35558;SDS011;21661;50.794;-1.066;2023-08-06T10:26:35;2.03;;;1.00;;
35558;SDS011;21661;50.794;-1.066;2023-08-06T10:29:01;6.75;;;0.95;;
35558;SDS011;21661;50.794;-1.066;2023-08-06T10:32:03;1.33;;;0.68;;
35558;SDS011;21661;50.794;-1.066;2023-08-06T10:37:21;2.80;;;1.10;;
35558;SDS011;21661;50.794;-1.066;2023-08-06T10:39:49;2.75;;;0.98;;
35558;SDS011;21661;50.794;-1.066;2023-08-06T10:42:22;2.22;;;0.95;;
35558;SDS011;21661;50.794;-1.066;2023-08-06T10:47:38;1.50;;;0.68;;
35558;SDS011;21661;50.794;-1.066;2023-08-06T10:50:07;3.33;;;0.85;;
35558;SDS011;21661;50.794;-1.066;2023-08-06T10:52:35;3.10;;;1.00;;
35558;SDS011;21661;50.794;-1.066;2023-08-06T10:55:01;2.70;;;0.80;;
35558;SDS011;21661;50.794;-1.066;2023-08-06T10:57:27;1.67;;;0.70;;
35558;SDS011;21661;50.794;-1.066;2023-08-06T10:59:52;1.60;;;0.68;;
35558;SDS011;21661;50.794;-1.066;2023-08-06T11:02:18;2.10;;;0.90;;
35558;SDS011;21661;50.794;-1.066;2023-08-06T11:04:43;2.25;;;0.50;;
35558;SDS011;21661;50.794;-1.066;2023-08-06T11:07:09;1.27;;;0.47;;
35558;SDS011;21661;50.794;-1.066;2023-08-06T11:09:35;2.40;;;0.43;;
35558;SDS011;21661;50.794;-1.066;2023-08-06T11:12:00;2.45;;;0.90;;
35558;SDS011;21661;50.794;-1.066;2023-08-06T11:14:26;2.25;;;0.50;;
35558;SDS011;21661;50.794;-1.066;2023-08-06T11:16:52;2.38;;;0.80;;
35558;SDS011;21661;50.794;-1.066;2023-08-06T11:19:17;5.85;;;0.90;;
35558;SDS011;21661;50.794;-1.066;2023-08-06T11:21:43;1.65;;;0.80;;
35558;SDS011;21661;50.794;-1.066;2023-08-06T11:24:12;7.00;;;1.20;;
35558;SDS011;21661;50.794;-1.066;2023-08-06T11:26:38;2.83;;;1.15;;
35558;SDS011;21661;50.794;-1.066;2023-08-06T11:29:05;1.77;;;0.70;;
35558;SDS011;21661;50.794;-1.066;2023-08-06T11:31:30;1.17;;;0.50;;
35558;SDS011;21661;50.794;-1.066;2023-08-06T11:33:56;2.33;;;0.50;;
35558;SDS011;21661;50.794;-1.066;2023-08-06T11:36:28;1.00;;;0.50;;
35558;SDS011;21661;50.794;-1.066;2023-08-06T11:38:58;1.48;;;0.80;;
35558;SDS011;21661;50.794;-1.066;2023-08-06T11:41:24;1.90;;;0.50;;
35558;SDS011;21661;50.794;-1.066;2023-08-06T11:43:50;0.65;;;0.40;;
35558;SDS011;21661;50.794;-1.066;2023-08-06T11:46:16;1.88;;;0.70;;
35558;SDS011;21661;50.794;-1.066;2023-08-06T11:48:51;2.30;;;0.68;;
35558;SDS011;21661;50.794;-1.066;2023-08-06T11:51:17;0.90;;;0.60;;
35558;SDS011;21661;50.794;-1.066;2023-08-06T11:53:46;4.10;;;0.80;;
35558;SDS011;21661;50.794;-1.066;2023-08-06T11:56:14;0.88;;;0.40;;
35558;SDS011;21661;50.794;-1.066;2023-08-06T11:58:41;1.95;;;0.55;;
35558;SDS011;21661;50.794;-1.066;2023-08-06T12:01:07;1.55;;;0.60;;
35558;SDS011;21661;50.794;-1.066;2023-08-06T12:03:32;1.90;;;0.50;;
35558;SDS011;21661;50.794;-1.066;2023-08-06T12:06:03;1.23;;;0.60;;
35558;SDS011;21661;50.794;-1.066;2023-08-06T12:08:29;2.15;;;0.77;;
35558;SDS011;21661;50.794;-1.066;2023-08-06T12:10:54;3.13;;;0.70;;
35558;SDS011;21661;50.794;-1.066;2023-08-06T12:13:20;1.52;;;0.90;;
35558;SDS011;21661;50.794;-1.066;2023-08-06T12:15:46;3.15;;;0.90;;
35558;SDS011;21661;50.794;-1.066;2023-08-06T12:18:11;1.65;;;0.70;;
35558;SDS011;21661;50.794;-1.066;2023-08-06T12:20:37;0.85;;;0.40;;
35558;SDS011;21661;50.794;-1.066;2023-08-06T12:23:03;2.60;;;0.75;;
35558;SDS011;21661;50.794;-1.066;2023-08-06T12:25:29;1.75;;;0.60;;
35558;SDS011;21661;50.794;-1.066;2023-08-06T12:27:54;1.30;;;0.50;;
35558;SDS011;21661;50.794;-1.066;2023-08-06T12:30:20;2.20;;;0.50;;
35558;SDS011;21661;50.794;-1.066;2023-08-06T12:32:46;1.40;;;0.60;;
35558;SDS011;21661;50.794;-1.066;2023-08-06T12:35:11;2.30;;;0.43;;
35558;SDS011;21661;50.794;-1.066;2023-08-06T12:37:39;1.00;;;0.50;;
35558;SDS011;21661;50.794;-1.066;2023-08-06T12:40:04;0.47;;;0.30;;
35558;SDS011;21661;50.794;-1.066;2023-08-06T12:42:32;2.53;;;0.70;;
35558;SDS011;21661;50.794;-1.066;2023-08-06T12:44:58;0.77;;;0.38;;
35558;SDS011;21661;50.794;-1.066;2023-08-06T12:47:23;1.90;;;0.60;;
35558;SDS011;21661;50.794;-1.066;2023-08-06T12:49:49;1.77;;;0.60;;
35558;SDS011;21661;50.794;-1.066;2023-08-06T12:52:15;1.02;;;0.40;;
35558;SDS011;21661;50.794;-1.066;2023-08-06T12:54:41;1.48;;;0.50;;
35558;SDS011;21661;50.794;-1.066;2023-08-06T12:57:07;2.28;;;0.93;;
35558;SDS011;21661;50.794;-1.066;2023-08-06T12:59:33;1.85;;;0.60;;
35558;SDS011;21661;50.794;-1.066;2023-08-06T13:01:59;1.30;;;0.52;;
35558;SDS011;21661;50.794;-1.066;2023-08-06T13:04:25;0.80;;;0.52;;
35558;SDS011;21661;50.794;-1.066;2023-08-06T13:06:50;2.95;;;1.05;;
35558;SDS011;21661;50.794;-1.066;2023-08-06T13:09:16;1.23;;;0.60;;
35558;SDS011;21661;50.794;-1.066;2023-08-06T13:11:41;1.00;;;0.50;;
35558;SDS011;21661;50.794;-1.066;2023-08-06T13:14:11;1.65;;;0.50;;
35558;SDS011;21661;50.794;-1.066;2023-08-06T13:16:38;2.15;;;0.70;;
35558;SDS011;21661;50.794;-1.066;2023-08-06T13:19:06;2.17;;;0.68;;
35558;SDS011;21661;50.794;-1.066;2023-08-06T13:21:32;2.75;;;0.80;;
35558;SDS011;21661;50.794;-1.066;2023-08-06T13:24:00;2.15;;;0.75;;
35558;SDS011;21661;50.794;-1.066;2023-08-06T13:26:27;2.85;;;0.90;;
35558;SDS011;21661;50.794;-1.066;2023-08-06T13:28:54;1.55;;;0.77;;
35558;SDS011;21661;50.794;-1.066;2023-08-06T13:31:22;2.15;;;0.75;;
35558;SDS011;21661;50.794;-1.066;2023-08-06T13:33:48;1.52;;;0.80;;
35558;SDS011;21661;50.794;-1.066;2023-08-06T13:36:14;1.08;;;0.63;;
35558;SDS011;21661;50.794;-1.066;2023-08-06T13:38:43;1.35;;;0.70;;
35558;SDS011;21661;50.794;-1.066;2023-08-06T13:41:09;2.22;;;0.65;;
35558;SDS011;21661;50.794;-1.066;2023-08-06T13:43:34;2.65;;;1.00;;
35558;SDS011;21661;50.794;-1.066;2023-08-06T13:46:03;3.92;;;1.05;;
35558;SDS011;21661;50.794;-1.066;2023-08-06T13:48:28;1.48;;;0.77;;
35558;SDS011;21661;50.794;-1.066;2023-08-06T13:50:54;2.60;;;0.90;;
35558;SDS011;21661;50.794;-1.066;2023-08-06T13:53:19;1.90;;;0.65;;
35558;SDS011;21661;50.794;-1.066;2023-08-06T13:55:45;2.58;;;0.65;;
35558;SDS011;21661;50.794;-1.066;2023-08-06T13:58:10;1.77;;;0.60;;
35558;SDS011;21661;50.794;-1.066;2023-08-06T14:00:36;2.78;;;0.88;;
35558;SDS011;21661;50.794;-1.066;2023-08-06T14:03:02;2.50;;;0.70;;
35558;SDS011;21661;50.794;-1.066;2023-08-06T14:05:27;1.88;;;0.65;;
35558;SDS011;21661;50.794;-1.066;2023-08-06T14:07:53;2.17;;;0.90;;
35558;SDS011;21661;50.794;-1.066;2023-08-06T14:10:18;2.33;;;0.50;;
35558;SDS011;21661;50.794;-1.066;2023-08-06T14:12:44;1.10;;;0.60;;
35558;SDS011;21661;50.794;-1.066;2023-08-06T14:15:10;1.50;;;0.45;;
35558;SDS011;21661;50.794;-1.066;2023-08-06T14:17:36;1.55;;;0.50;;
35558;SDS011;21661;50.794;-1.066;2023-08-06T14:20:03;2.17;;;0.57;;
35558;SDS011;21661;50.794;-1.066;2023-08-06T14:22:29;0.82;;;0.40;;
35558;SDS011;21661;50.794;-1.066;2023-08-06T14:24:56;0.63;;;0.32;;
35558;SDS011;21661;50.794;-1.066;2023-08-06T14:27:22;1.27;;;0.70;;
35558;SDS011;21661;50.794;-1.066;2023-08-06T14:29:48;3.10;;;0.63;;
35558;SDS011;21661;50.794;-1.066;2023-08-06T14:32:14;1.08;;;0.50;;
35558;SDS011;21661;50.794;-1.066;2023-08-06T14:34:42;1.70;;;0.40;;
35558;SDS011;21661;50.794;-1.066;2023-08-06T14:37:08;0.65;;;0.30;;
35558;SDS011;21661;50.794;-1.066;2023-08-06T14:39:34;0.93;;;0.40;;
35558;SDS011;21661;50.794;-1.066;2023-08-06T14:41:59;3.10;;;0.50;;
35558;SDS011;21661;50.794;-1.066;2023-08-06T14:44:25;0.77;;;0.40;;
35558;SDS011;21661;50.794;-1.066;2023-08-06T14:46:51;0.73;;;0.43;;
35558;SDS011;21661;50.794;-1.066;2023-08-06T14:49:16;0.80;;;0.43;;